Time;durP1;ratioP1;P1;durP2;ratioP2;P2;SDS_P1;SDS_P2;PMS_P1;PMS_P2;Temp;Humidity;BMP_temperature;BMP_pressure;BME280_temperature;BME280_humidity;BME280_pressure;Samples;Min_cycle;Max_cycle;Signal;HPM_P1;HPM_P2
2023/07/01 00:01:04;;;;;;;1.58;1.00;;;18.40;99.90;;;;;;5068589;28;20044;-60
2023/07/01 00:03:31;;;;;;;3.53;1.23;;;18.40;99.90;;;;;;5068699;28;20056;-60
2023/07/01 00:05:58;;;;;;;1.00;0.90;;;18.40;99.90;;;;;;5067943;28;20049;-61
2023/07/01 00:08:25;;;;;;;2.60;1.27;;;18.40;99.90;;;;;;5067620;28;20491;-60
2023/07/01 00:10:54;;;;;;;2.97;1.20;;;18.40;99.90;;;;;;5067837;28;20511;-60
2023/07/01 00:13:21;;;;;;;3.22;1.25;;;18.40;99.90;;;;;;5050496;28;20052;-61
2023/07/01 00:15:47;;;;;;;2.75;1.20;;;18.40;99.90;;;;;;5067237;28;20411;-61
2023/07/01 00:18:14;;;;;;;1.75;1.23;;;18.50;99.90;;;;;;5067541;28;20041;-60
2023/07/01 00:20:41;;;;;;;2.30;1.10;;;18.40;99.90;;;;;;5067653;28;20088;-62
2023/07/01 00:23:08;;;;;;;4.22;1.20;;;18.40;99.90;;;;;;5067697;28;20048;-60
2023/07/01 00:25:35;;;;;;;6.68;1.33;;;18.50;99.90;;;;;;5067944;28;20075;-61
2023/07/01 00:28:01;;;;;;;4.00;1.30;;;18.40;99.90;;;;;;5067352;28;20053;-61
2023/07/01 00:30:28;;;;;;;2.38;1.35;;;18.40;99.90;;;;;;5068100;28;20048;-60
2023/07/01 00:32:55;;;;;;;2.88;1.20;;;18.50;99.90;;;;;;5066950;28;20040;-60
2023/07/01 00:35:22;;;;;;;1.92;1.45;;;18.40;99.90;;;;;;5068171;28;20511;-60
2023/07/01 00:37:49;;;;;;;2.97;1.38;;;18.40;99.90;;;;;;5067113;28;20488;-61
2023/07/01 00:40:16;;;;;;;1.77;1.30;;;18.40;99.90;;;;;;5068410;28;20055;-60
2023/07/01 00:42:43;;;;;;;3.03;1.15;;;18.40;99.90;;;;;;5067222;28;20063;-60
2023/07/01 00:45:10;;;;;;;9.88;1.80;;;18.40;99.90;;;;;;5067447;28;20055;-60
2023/07/01 00:47:38;;;;;;;3.08;1.35;;;18.40;99.90;;;;;;5066466;28;20049;-59
2023/07/01 00:50:09;;;;;;;2.92;1.20;;;18.40;99.90;;;;;;5049622;28;20098;-59
2023/07/01 00:52:40;;;;;;;3.65;1.35;;;18.40;99.90;;;;;;5067067;28;20476;-59
2023/07/01 00:55:07;;;;;;;1.45;1.00;;;18.30;99.90;;;;;;5049941;28;20518;-59
2023/07/01 00:57:34;;;;;;;3.17;1.30;;;18.30;99.90;;;;;;5066691;28;20052;-61
2023/07/01 01:00:03;;;;;;;2.13;1.00;;;18.30;99.90;;;;;;5067285;28;20056;-59
2023/07/01 01:02:38;;;;;;;1.75;1.10;;;18.30;99.90;;;;;;5067220;28;20056;-60
2023/07/01 01:05:10;;;;;;;1.15;0.90;;;18.40;99.90;;;;;;5049808;28;20113;-61
2023/07/01 01:07:42;;;;;;;3.05;1.45;;;18.30;99.90;;;;;;5031359;28;20040;-64
2023/07/01 01:10:11;;;;;;;2.10;1.10;;;18.30;99.90;;;;;;5049905;28;20057;-61
2023/07/01 01:12:38;;;;;;;4.03;1.15;;;18.40;99.90;;;;;;5049967;28;20106;-60
2023/07/01 01:15:08;;;;;;;3.28;1.45;;;18.40;99.90;;;;;;5049445;28;20056;-60
2023/07/01 01:17:35;;;;;;;1.77;0.98;;;18.30;99.90;;;;;;5049320;28;20036;-61
2023/07/01 01:20:13;;;;;;;2.63;1.10;;;18.40;99.90;;;;;;5033106;28;20098;-60
2023/07/01 01:22:46;;;;;;;2.50;1.15;;;18.40;99.90;;;;;;5051050;28;20045;-60
2023/07/01 01:25:29;;;;;;;1.80;0.98;;;18.40;99.90;;;;;;4702733;28;10000020;-59
2023/07/01 01:27:57;;;;;;;1.67;1.00;;;18.40;99.90;;;;;;5049296;28;20114;-59
2023/07/01 01:30:24;;;;;;;3.55;0.95;;;18.40;99.90;;;;;;5049401;28;20048;-59
2023/07/01 01:32:51;;;;;;;2.42;1.13;;;18.40;99.90;;;;;;5048976;28;20068;-59
2023/07/01 01:35:17;;;;;;;2.25;0.70;;;18.40;99.90;;;;;;5066610;28;20143;-59
2023/07/01 01:38:06;;;;;;;1.23;0.75;;;18.40;99.90;;;;;;5066450;28;20048;-59
2023/07/01 01:40:42;;;;;;;2.55;1.00;;;18.40;99.90;;;;;;5066879;28;20041;-61
2023/07/01 01:43:14;;;;;;;2.10;1.00;;;18.40;99.90;;;;;;5048965;28;20052;-60
2023/07/01 01:45:41;;;;;;;1.13;0.60;;;18.40;99.90;;;;;;5048753;28;20052;-60
2023/07/01 01:48:08;;;;;;;1.45;0.85;;;18.50;99.90;;;;;;5066118;28;20262;-60
2023/07/01 01:50:35;;;;;;;1.83;0.80;;;18.40;99.90;;;;;;5049113;28;20131;-60
2023/07/01 01:53:01;;;;;;;7.88;1.00;;;18.40;99.90;;;;;;5048934;28;20302;-60
2023/07/01 01:55:29;;;;;;;2.75;0.70;;;18.40;99.90;;;;;;5051412;28;20057;-59
2023/07/01 01:57:57;;;;;;;1.02;0.60;;;18.40;99.90;;;;;;5053181;28;20051;-60
2023/07/01 02:00:24;;;;;;;2.13;1.00;;;18.40;99.90;;;;;;5071205;28;20058;-60
2023/07/01 02:02:51;;;;;;;2.17;0.70;;;18.50;99.90;;;;;;5071260;28;20052;-61
2023/07/01 02:05:18;;;;;;;1.48;0.77;;;18.50;99.90;;;;;;5070751;28;20113;-60
2023/07/01 02:07:45;;;;;;;0.98;0.70;;;18.50;99.90;;;;;;5052302;28;20049;-60
2023/07/01 02:10:13;;;;;;;2.95;0.70;;;18.40;99.90;;;;;;5070580;28;20079;-60
2023/07/01 02:12:40;;;;;;;1.90;0.68;;;18.40;99.90;;;;;;5070659;28;20048;-60
2023/07/01 02:15:07;;;;;;;2.20;0.75;;;18.40;99.90;;;;;;5070425;28;20052;-60
2023/07/01 02:17:34;;;;;;;3.85;1.02;;;18.40;99.90;;;;;;5070248;28;20503;-60
2023/07/01 02:20:01;;;;;;;2.63;0.77;;;18.50;99.90;;;;;;5070332;28;20040;-60
2023/07/01 02:22:28;;;;;;;2.25;0.80;;;18.50;99.90;;;;;;5067859;28;20052;-60
2023/07/01 02:24:54;;;;;;;3.17;0.70;;;18.50;99.90;;;;;;5055712;28;20419;-59
2023/07/01 02:27:22;;;;;;;2.78;0.77;;;18.50;99.90;;;;;;5058568;28;20045;-59
2023/07/01 02:29:49;;;;;;;1.75;0.95;;;18.50;99.90;;;;;;5075189;28;20045;-60
2023/07/01 02:32:16;;;;;;;3.95;0.80;;;18.50;99.90;;;;;;5070009;28;20048;-60
2023/07/01 02:34:43;;;;;;;3.28;0.95;;;18.40;99.90;;;;;;5069003;28;20107;-60
2023/07/01 02:37:10;;;;;;;1.38;0.70;;;18.40;99.90;;;;;;5065395;28;20085;-61
2023/07/01 02:39:37;;;;;;;3.08;0.77;;;18.40;99.90;;;;;;5070191;28;20075;-59
2023/07/01 02:42:04;;;;;;;0.60;0.60;;;18.40;99.90;;;;;;5067433;28;20044;-61
2023/07/01 02:44:31;;;;;;;1.95;1.25;;;18.50;99.90;;;;;;5069380;28;20105;-60
2023/07/01 02:46:58;;;;;;;3.15;0.82;;;18.40;99.90;;;;;;5057835;28;20049;-60
2023/07/01 02:49:24;;;;;;;8.50;0.60;;;18.40;99.90;;;;;;5072885;28;20105;-60
2023/07/01 02:51:51;;;;;;;2.90;0.70;;;18.40;99.90;;;;;;5068626;28;20052;-59
2023/07/01 02:54:18;;;;;;;2.00;0.70;;;18.40;99.90;;;;;;5069229;28;20052;-60
2023/07/01 02:56:45;;;;;;;1.98;0.70;;;18.30;99.90;;;;;;5068715;28;20049;-60
2023/07/01 02:59:12;;;;;;;1.17;0.45;;;18.30;99.90;;;;;;5069924;28;20059;-60
2023/07/01 03:01:38;;;;;;;0.82;0.50;;;18.30;99.90;;;;;;5069057;28;20484;-59
2023/07/01 03:04:06;;;;;;;2.97;0.70;;;18.30;99.90;;;;;;5051712;28;20049;-60
2023/07/01 03:06:45;;;;;;;2.40;0.65;;;18.30;99.90;;;;;;5069080;28;20384;-60
2023/07/01 03:09:12;;;;;;;2.33;1.20;;;18.30;99.90;;;;;;5069622;28;20488;-60
2023/07/01 03:11:39;;;;;;;1.40;0.70;;;18.30;99.90;;;;;;5069686;28;20040;-60
2023/07/01 03:14:06;;;;;;;1.42;0.80;;;18.30;99.90;;;;;;5069625;28;20379;-60
2023/07/01 03:16:33;;;;;;;2.55;0.57;;;18.40;99.90;;;;;;5069196;28;20462;-61
2023/07/01 03:19:00;;;;;;;1.98;0.70;;;18.40;99.90;;;;;;5069208;28;20518;-61
2023/07/01 03:21:27;;;;;;;1.73;0.60;;;18.30;99.90;;;;;;5069408;28;20049;-61
2023/07/01 03:23:53;;;;;;;3.40;0.80;;;18.30;99.90;;;;;;5069388;28;20048;-61
2023/07/01 03:26:20;;;;;;;1.67;0.57;;;18.30;99.90;;;;;;5069043;28;20060;-59
2023/07/01 03:28:47;;;;;;;1.98;0.80;;;18.30;99.90;;;;;;5069329;28;20143;-60
2023/07/01 03:31:14;;;;;;;3.38;0.50;;;18.20;99.90;;;;;;5069125;28;20045;-59
2023/07/01 03:33:41;;;;;;;1.77;0.60;;;18.20;99.90;;;;;;5068095;28;20051;-60
2023/07/01 03:36:09;;;;;;;1.75;0.60;;;18.00;99.90;;;;;;5068031;28;20040;-60
2023/07/01 03:38:36;;;;;;;2.28;0.70;;;17.80;99.90;;;;;;5068094;28;20059;-60
2023/07/01 03:41:03;;;;;;;1.60;0.80;;;17.70;99.90;;;;;;5068476;28;20053;-60
2023/07/01 03:43:30;;;;;;;0.52;0.52;;;17.60;99.90;;;;;;5068174;28;20055;-60
2023/07/01 03:45:56;;;;;;;5.50;0.85;;;17.50;99.90;;;;;;5068650;28;20502;-60
2023/07/01 03:48:23;;;;;;;1.10;0.55;;;17.50;99.90;;;;;;5068126;28;20326;-60
2023/07/01 03:50:50;;;;;;;1.75;0.60;;;17.40;99.90;;;;;;5068606;28;20048;-61
2023/07/01 03:53:17;;;;;;;1.23;0.70;;;17.40;99.90;;;;;;5068496;28;20083;-60
2023/07/01 03:55:44;;;;;;;2.10;1.00;;;17.30;99.90;;;;;;5068146;28;20056;-59
2023/07/01 03:58:11;;;;;;;1.85;1.00;;;17.30;99.90;;;;;;5067945;28;20495;-61
2023/07/01 04:00:38;;;;;;;1.23;0.82;;;17.20;99.90;;;;;;5068501;28;20095;-59
2023/07/01 04:03:08;;;;;;;1.15;0.85;;;17.20;99.90;;;;;;5067787;28;20051;-60
2023/07/01 04:05:36;;;;;;;5.65;1.17;;;17.20;99.90;;;;;;5066611;28;20135;-60
2023/07/01 04:08:03;;;;;;;3.65;1.13;;;17.10;99.90;;;;;;5068259;28;20048;-59
2023/07/01 04:10:30;;;;;;;4.85;1.58;;;17.10;99.90;;;;;;5050116;28;20475;-59
2023/07/01 04:12:58;;;;;;;2.53;1.15;;;17.10;99.90;;;;;;5068764;28;20403;-60
2023/07/01 04:15:24;;;;;;;1.17;1.00;;;17.10;99.90;;;;;;5050488;28;20051;-60
2023/07/01 04:17:51;;;;;;;1.42;0.68;;;17.10;99.90;;;;;;5049391;28;20102;-60
2023/07/01 04:20:19;;;;;;;9.63;1.75;;;17.00;99.90;;;;;;5067335;28;20411;-60
2023/07/01 04:22:47;;;;;;;1.77;0.90;;;17.10;99.90;;;;;;5068720;28;20048;-60
2023/07/01 04:25:14;;;;;;;2.05;0.80;;;17.10;99.90;;;;;;5050228;28;20118;-60
2023/07/01 04:27:43;;;;;;;1.52;0.77;;;17.10;99.90;;;;;;5065468;28;20049;-60
2023/07/01 04:30:12;;;;;;;2.13;1.20;;;17.10;99.90;;;;;;5045346;28;20044;-61
2023/07/01 04:32:39;;;;;;;1.13;0.80;;;17.00;99.90;;;;;;5068528;28;20040;-61
2023/07/01 04:35:06;;;;;;;1.35;1.25;;;17.00;99.90;;;;;;5050331;28;20087;-63
2023/07/01 04:37:33;;;;;;;1.85;0.90;;;17.10;99.90;;;;;;5067577;28;20044;-61
2023/07/01 04:40:00;;;;;;;1.75;0.88;;;17.10;99.90;;;;;;5050056;28;20097;-60
2023/07/01 04:42:27;;;;;;;2.83;0.88;;;17.10;99.90;;;;;;5067550;28;20326;-61
2023/07/01 04:44:54;;;;;;;4.35;1.42;;;17.10;99.90;;;;;;5049655;28;20087;-60
2023/07/01 04:47:24;;;;;;;4.10;1.27;;;17.10;99.90;;;;;;5067564;28;20082;-60
2023/07/01 04:49:52;;;;;;;2.85;1.15;;;17.20;99.90;;;;;;5067810;28;20109;-61
2023/07/01 04:52:24;;;;;;;6.05;1.83;;;17.20;99.90;;;;;;5067238;28;20492;-61
2023/07/01 04:54:51;;;;;;;4.25;1.27;;;17.20;99.90;;;;;;5067508;28;20048;-61
2023/07/01 04:57:18;;;;;;;7.60;1.45;;;17.20;99.90;;;;;;5067404;28;20281;-62
2023/07/01 04:59:44;;;;;;;1.80;1.55;;;17.10;99.90;;;;;;5067258;28;20052;-60
2023/07/01 05:02:11;;;;;;;3.75;2.17;;;17.10;99.90;;;;;;5066802;28;20047;-60
2023/07/01 05:04:38;;;;;;;2.70;1.33;;;17.10;99.90;;;;;;5067681;28;20058;-60
2023/07/01 05:07:05;;;;;;;5.18;1.67;;;17.20;99.90;;;;;;5066165;28;20106;-60
2023/07/01 05:09:32;;;;;;;3.97;2.20;;;17.20;99.90;;;;;;5067101;28;20049;-59
2023/07/01 05:11:59;;;;;;;3.88;1.92;;;17.30;99.90;;;;;;5067338;28;20048;-60
2023/07/01 05:14:26;;;;;;;8.20;1.80;;;17.30;99.90;;;;;;4711344;28;10000131;-60
2023/07/01 05:16:53;;;;;;;5.38;2.00;;;17.30;99.90;;;;;;5060032;28;20048;-60
2023/07/01 05:19:20;;;;;;;4.82;1.83;;;17.30;99.90;;;;;;5064228;28;20055;-60
2023/07/01 05:21:50;;;;;;;6.97;1.73;;;17.30;99.90;;;;;;5045718;28;20059;-60
2023/07/01 05:24:17;;;;;;;6.50;2.03;;;17.30;99.90;;;;;;5063632;28;20392;-63
2023/07/01 05:26:46;;;;;;;8.02;1.92;;;17.30;99.90;;;;;;5062182;28;20527;-60
2023/07/01 05:29:14;;;;;;;6.50;1.92;;;17.30;99.90;;;;;;5045972;28;20044;-61
2023/07/01 05:31:40;;;;;;;10.75;2.13;;;17.30;99.90;;;;;;5066830;28;20125;-60
2023/07/01 05:34:07;;;;;;;3.65;1.65;;;17.30;99.90;;;;;;5064855;28;20044;-60
2023/07/01 05:36:36;;;;;;;5.13;1.70;;;17.30;99.90;;;;;;5043031;28;20281;-60
2023/07/01 05:39:03;;;;;;;5.07;2.25;;;17.30;99.90;;;;;;5062383;28;20052;-60
2023/07/01 05:41:30;;;;;;;7.22;2.78;;;17.30;99.90;;;;;;5066331;28;20052;-61
2023/07/01 05:43:57;;;;;;;7.28;3.25;;;17.30;99.90;;;;;;5046170;28;20056;-61
2023/07/01 05:46:24;;;;;;;5.68;2.42;;;17.30;99.90;;;;;;5061836;28;20052;-61
2023/07/01 05:48:51;;;;;;;12.07;3.40;;;17.30;99.90;;;;;;5058210;28;20053;-60
2023/07/01 05:51:18;;;;;;;13.68;3.17;;;17.30;99.90;;;;;;5059966;28;20556;-59
2023/07/01 05:53:45;;;;;;;5.68;2.30;;;17.30;99.90;;;;;;5065286;28;20048;-59
2023/07/01 05:56:13;;;;;;;5.75;2.80;;;17.30;99.90;;;;;;5045302;28;20427;-59
2023/07/01 05:58:39;;;;;;;8.73;2.78;;;17.40;99.90;;;;;;5063966;28;20044;-60
2023/07/01 06:01:07;;;;;;;9.15;2.55;;;17.30;99.90;;;;;;5044559;28;20063;-60
2023/07/01 06:03:34;;;;;;;8.82;2.90;;;17.30;99.90;;;;;;5042194;28;20110;-60
2023/07/01 06:06:01;;;;;;;9.63;3.33;;;17.30;99.90;;;;;;5054886;28;20041;-59
2023/07/01 06:08:28;;;;;;;6.75;2.70;;;17.20;99.90;;;;;;5056158;28;20049;-60
2023/07/01 06:10:55;;;;;;;9.13;3.20;;;17.20;99.90;;;;;;5055550;28;20048;-60
2023/07/01 06:13:21;;;;;;;9.38;4.18;;;17.10;99.90;;;;;;5055764;28;20048;-60
2023/07/01 06:15:49;;;;;;;9.27;2.88;;;17.10;99.90;;;;;;5064973;28;20059;-60
2023/07/01 06:18:15;;;;;;;6.75;2.92;;;17.00;99.90;;;;;;5065972;28;20055;-60
2023/07/01 06:20:43;;;;;;;9.63;3.45;;;16.80;99.90;;;;;;5031901;28;20106;-60
2023/07/01 06:23:10;;;;;;;5.47;2.25;;;16.70;99.90;;;;;;5040666;28;20552;-61
2023/07/01 06:25:37;;;;;;;5.68;1.95;;;16.60;99.90;;;;;;5027342;28;1105651;-61
2023/07/01 06:28:04;;;;;;;12.48;2.17;;;16.50;99.90;;;;;;5066658;28;20075;-61
2023/07/01 06:30:31;;;;;;;2.88;1.60;;;16.50;99.90;;;;;;5067521;28;20182;-61
2023/07/01 06:32:57;;;;;;;3.45;1.10;;;16.50;99.90;;;;;;5066613;28;20165;-62
2023/07/01 06:35:24;;;;;;;2.72;1.08;;;16.40;99.90;;;;;;5067276;28;20040;-60
2023/07/01 06:37:51;;;;;;;4.75;1.20;;;16.40;99.90;;;;;;5066389;28;20052;-60
2023/07/01 06:40:18;;;;;;;1.30;0.85;;;16.40;99.90;;;;;;5048422;28;20083;-60
2023/07/01 06:42:46;;;;;;;2.45;1.00;;;16.40;99.90;;;;;;5066827;28;20045;-60
2023/07/01 06:45:13;;;;;;;1.42;0.52;;;16.40;99.90;;;;;;5066952;28;20062;-60
2023/07/01 06:47:39;;;;;;;2.03;0.75;;;16.40;99.90;;;;;;5067022;28;20411;-60
2023/07/01 06:50:07;;;;;;;3.00;0.77;;;16.40;99.90;;;;;;5069897;28;20052;-60
2023/07/01 06:52:34;;;;;;;4.13;1.02;;;16.50;99.90;;;;;;5070255;28;20110;-60
2023/07/01 06:55:01;;;;;;;1.45;0.75;;;16.50;99.90;;;;;;5070067;28;20048;-60
2023/07/01 06:57:30;;;;;;;4.38;0.90;;;16.50;99.90;;;;;;5069691;28;20060;-60
2023/07/01 06:59:57;;;;;;;4.65;0.90;;;16.60;99.90;;;;;;5070095;28;20047;-60
2023/07/01 07:02:23;;;;;;;2.13;0.80;;;16.70;99.90;;;;;;5069938;28;20055;-60
2023/07/01 07:04:52;;;;;;;1.70;0.80;;;16.70;99.90;;;;;;5070133;28;20045;-60
2023/07/01 07:07:19;;;;;;;4.20;1.10;;;16.70;99.90;;;;;;5069806;28;20140;-60
2023/07/01 07:09:46;;;;;;;0.90;0.68;;;16.80;99.90;;;;;;5069876;28;20048;-60
2023/07/01 07:12:13;;;;;;;1.85;0.90;;;16.90;99.90;;;;;;5052113;28;20538;-60
2023/07/01 07:14:40;;;;;;;2.17;1.30;;;16.90;99.90;;;;;;5069679;28;20059;-62
2023/07/01 07:17:07;;;;;;;4.40;1.05;;;16.90;99.90;;;;;;5069541;28;20048;-60
2023/07/01 07:19:34;;;;;;;3.17;1.30;;;17.00;99.90;;;;;;5069424;28;20044;-60
2023/07/01 07:22:01;;;;;;;2.08;0.70;;;17.00;99.90;;;;;;5067988;28;20044;-60
2023/07/01 07:24:28;;;;;;;4.85;1.10;;;17.10;99.90;;;;;;4714244;28;10000040;-62
2023/07/01 07:27:00;;;;;;;4.45;1.00;;;17.00;99.90;;;;;;5068955;28;20048;-61
2023/07/01 07:29:28;;;;;;;3.63;0.80;;;17.10;99.90;;;;;;5064855;28;20095;-61
2023/07/01 07:31:55;;;;;;;2.38;1.23;;;17.10;99.90;;;;;;5061067;28;20512;-61
2023/07/01 07:34:23;;;;;;;3.80;1.13;;;17.10;99.90;;;;;;5040603;28;20049;-60
2023/07/01 07:36:50;;;;;;;4.38;0.80;;;17.10;99.90;;;;;;5061261;28;20099;-59
2023/07/01 07:39:17;;;;;;;1.83;0.88;;;17.20;99.90;;;;;;5060474;28;20044;-60
2023/07/01 07:41:44;;;;;;;3.03;0.90;;;17.20;99.90;;;;;;5041563;28;20249;-61
2023/07/01 07:44:11;;;;;;;2.17;0.70;;;17.20;99.90;;;;;;5066977;28;20045;-60
2023/07/01 07:46:39;;;;;;;1.70;0.77;;;17.10;99.90;;;;;;5067075;28;20503;-61
2023/07/01 07:49:06;;;;;;;5.57;1.00;;;17.20;99.90;;;;;;5063547;28;20484;-62
2023/07/01 07:51:33;;;;;;;2.80;1.00;;;17.20;99.90;;;;;;5060326;28;20381;-61
2023/07/01 07:54:00;;;;;;;2.38;1.15;;;17.20;99.90;;;;;;5037934;28;20057;-61
2023/07/01 07:56:30;;;;;;;3.10;0.90;;;17.20;99.90;;;;;;5058186;28;20106;-61
2023/07/01 07:58:56;;;;;;;2.95;0.88;;;17.30;99.90;;;;;;5048168;28;20036;-61
2023/07/01 08:01:23;;;;;;;1.85;0.90;;;17.30;99.90;;;;;;5067759;28;20049;-61
2023/07/01 08:03:50;;;;;;;2.42;0.80;;;17.30;99.90;;;;;;5067924;28;20068;-61
2023/07/01 08:06:17;;;;;;;1.38;0.70;;;17.50;99.90;;;;;;5067766;28;20041;-61
2023/07/01 08:08:44;;;;;;;2.03;0.90;;;17.50;99.90;;;;;;5067553;28;20045;-61
2023/07/01 08:11:11;;;;;;;1.48;0.73;;;17.60;99.90;;;;;;5068249;28;20036;-60
2023/07/01 08:13:38;;;;;;;2.65;0.90;;;17.70;99.90;;;;;;5068209;28;20044;-61
2023/07/01 08:16:05;;;;;;;2.10;0.65;;;17.70;99.90;;;;;;5068150;28;20044;-62
2023/07/01 08:18:32;;;;;;;2.25;0.90;;;17.80;99.90;;;;;;5068011;28;20131;-61
2023/07/01 08:20:59;;;;;;;0.65;0.47;;;17.90;99.90;;;;;;5068002;28;20118;-61
2023/07/01 08:23:26;;;;;;;1.27;0.40;;;18.00;99.90;;;;;;5068002;28;20512;-60
2023/07/01 08:25:52;;;;;;;0.57;0.50;;;18.00;99.90;;;;;;5067848;28;20068;-60
2023/07/01 08:28:19;;;;;;;2.05;0.55;;;18.20;99.90;;;;;;5067877;28;20049;-60
2023/07/01 08:30:46;;;;;;;1.05;0.40;;;18.20;99.90;;;;;;5048272;28;20084;-60
2023/07/01 08:33:13;;;;;;;5.72;0.80;;;18.30;99.90;;;;;;5062441;28;20040;-60
2023/07/01 08:35:40;;;;;;;4.15;0.70;;;18.40;99.90;;;;;;5067411;28;20048;-60
2023/07/01 08:38:07;;;;;;;2.28;0.77;;;18.40;99.90;;;;;;5067243;28;20048;-60
2023/07/01 08:40:34;;;;;;;1.08;0.63;;;18.50;99.90;;;;;;5067019;28;20048;-59
2023/07/01 08:43:05;;;;;;;2.00;0.70;;;18.60;99.90;;;;;;5050066;28;20040;-60
2023/07/01 08:45:32;;;;;;;3.92;0.57;;;18.70;99.90;;;;;;4714070;28;10000204;-60
2023/07/01 08:48:00;;;;;;;1.23;0.60;;;18.70;99.90;;;;;;5063352;28;20044;-59
2023/07/01 08:50:45;;;;;;;5.85;0.75;;;18.60;99.90;;;;;;5063593;28;20048;-59
2023/07/01 08:53:15;;;;;;;1.85;0.52;;;18.70;99.90;;;;;;5041345;28;20154;-62
2023/07/01 08:55:42;;;;;;;1.33;0.50;;;18.60;99.90;;;;;;5009604;28;20053;-61
2023/07/01 08:58:08;;;;;;;4.10;0.70;;;18.60;99.90;;;;;;5054888;28;20033;-59
2023/07/01 09:00:35;;;;;;;1.63;0.80;;;18.80;99.90;;;;;;5064536;28;20337;-60
2023/07/01 09:03:02;;;;;;;1.50;0.60;;;18.80;99.90;;;;;;5046336;28;20047;-59
2023/07/01 09:05:29;;;;;;;4.10;0.50;;;19.00;99.90;;;;;;5046530;28;20114;-59
2023/07/01 09:07:56;;;;;;;1.42;0.38;;;19.10;99.90;;;;;;5045776;28;20060;-60
2023/07/01 09:10:23;;;;;;;0.50;0.40;;;19.10;99.90;;;;;;5064487;28;20075;-61
2023/07/01 09:12:50;;;;;;;2.30;0.73;;;19.10;99.90;;;;;;5064205;28;20416;-61
2023/07/01 09:15:17;;;;;;;3.92;0.50;;;19.10;99.90;;;;;;5063664;28;20044;-60
2023/07/01 09:17:44;;;;;;;2.55;0.60;;;19.30;99.90;;;;;;5046466;28;20048;-61
2023/07/01 09:20:12;;;;;;;2.00;0.45;;;19.30;99.90;;;;;;5063231;28;20048;-62
2023/07/01 09:22:43;;;;;;;0.55;0.32;;;19.30;99.90;;;;;;5061685;28;20055;-60
2023/07/01 09:25:12;;;;;;;4.70;0.80;;;19.30;99.90;;;;;;5063450;28;20053;-60
2023/07/01 09:27:40;;;;;;;4.82;0.52;;;19.30;99.90;;;;;;5026082;28;20427;-61
2023/07/01 09:30:24;;;;;;;1.80;0.77;;;19.30;99.90;;;;;;5038772;28;20495;-61
2023/07/01 09:32:52;;;;;;;2.40;0.70;;;19.40;99.90;;;;;;5043241;28;20057;-60
2023/07/01 09:35:22;;;;;;;1.48;0.60;;;19.50;99.90;;;;;;5058389;28;20079;-61
2023/07/01 09:38:03;;;;;;;2.50;1.02;;;19.70;99.90;;;;;;5063717;28;20060;-62
2023/07/01 09:40:29;;;;;;;3.47;0.80;;;19.90;99.90;;;;;;5042899;28;20067;-61
2023/07/01 09:42:57;;;;;;;1.70;0.60;;;19.90;99.90;;;;;;5062996;28;20053;-63
2023/07/01 09:45:24;;;;;;;1.92;1.00;;;19.80;99.90;;;;;;5056735;28;20566;-60
2023/07/01 09:47:53;;;;;;;1.15;0.60;;;19.80;99.90;;;;;;5057375;28;20056;-61
2023/07/01 09:50:26;;;;;;;3.05;1.25;;;19.60;99.90;;;;;;5056348;28;20055;-61
2023/07/01 09:52:55;;;;;;;1.77;0.68;;;19.40;99.90;;;;;;5059818;28;20117;-61
2023/07/01 09:55:22;;;;;;;1.10;0.65;;;19.60;99.90;;;;;;5053168;28;20752;-62
2023/07/01 09:57:50;;;;;;;2.45;0.73;;;19.60;99.90;;;;;;5034917;28;20447;-61
2023/07/01 10:00:16;;;;;;;6.22;1.23;;;19.60;99.90;;;;;;5035089;28;20045;-60
2023/07/01 10:02:47;;;;;;;1.88;0.70;;;19.50;99.90;;;;;;5054327;28;20043;-60
2023/07/01 10:05:14;;;;;;;2.08;0.65;;;19.50;99.90;;;;;;5036030;28;20080;-60
2023/07/01 10:07:42;;;;;;;1.85;1.00;;;19.60;99.90;;;;;;5036345;28;20041;-60
2023/07/01 10:10:16;;;;;;;3.92;1.02;;;19.50;99.90;;;;;;5053125;28;20198;-59
2023/07/01 10:12:44;;;;;;;4.22;1.30;;;19.50;99.90;;;;;;5003267;28;20117;-60
2023/07/01 10:15:12;;;;;;;0.82;0.70;;;19.50;99.90;;;;;;5044421;28;20372;-60
2023/07/01 10:17:47;;;;;;;2.53;0.68;;;19.40;99.90;;;;;;5059503;28;20048;-59
2023/07/01 10:20:30;;;;;;;2.75;0.68;;;19.30;99.90;;;;;;5065645;28;20133;-60
2023/07/01 10:22:57;;;;;;;1.58;0.70;;;19.20;99.90;;;;;;5061093;28;20127;-59
2023/07/01 10:25:36;;;;;;;4.63;0.80;;;19.20;99.90;;;;;;5065420;28;20083;-59
2023/07/01 10:28:03;;;;;;;3.72;1.17;;;19.20;99.90;;;;;;5045334;28;20495;-58
2023/07/01 10:30:45;;;;;;;2.50;0.95;;;19.40;99.90;;;;;;5064738;28;20116;-59
2023/07/01 10:33:27;;;;;;;1.63;0.98;;;19.50;99.90;;;;;;5065579;28;20055;-58
2023/07/01 10:36:04;;;;;;;5.15;1.38;;;19.70;99.90;;;;;;5065703;28;20163;-60
2023/07/01 10:38:31;;;;;;;5.30;1.23;;;19.70;99.90;;;;;;5064841;28;20447;-66
2023/07/01 10:40:58;;;;;;;3.35;1.20;;;19.70;99.90;;;;;;5062419;28;20052;-60
2023/07/01 10:43:37;;;;;;;3.25;0.90;;;19.70;99.90;;;;;;5062838;28;20049;-60
2023/07/01 10:46:07;;;;;;;1.75;1.05;;;19.80;99.90;;;;;;5057292;28;20044;-60
2023/07/01 10:48:41;;;;;;;1.10;0.90;;;20.00;99.90;;;;;;5060499;28;20048;-60
2023/07/01 10:51:11;;;;;;;3.72;0.98;;;20.10;99.90;;;;;;5054650;28;20498;-60
2023/07/01 10:54:00;;;;;;;7.35;2.05;;;20.00;99.90;;;;;;5059960;28;20052;-63
2023/07/01 10:56:29;;;;;;;1.60;1.13;;;20.20;99.90;;;;;;5060912;28;20059;-59
2023/07/01 10:59:18;;;;;;;1.50;1.40;;;20.30;99.90;;;;;;5057967;28;20519;-59
2023/07/01 11:01:49;;;;;;;2.20;1.10;;;20.60;99.90;;;;;;5047301;28;20057;-58
2023/07/01 11:04:17;;;;;;;3.25;1.10;;;20.80;99.90;;;;;;5065321;28;20420;-60
2023/07/01 11:06:53;;;;;;;2.30;1.30;;;21.00;99.90;;;;;;5065053;28;20261;-60
2023/07/01 11:09:32;;;;;;;1.90;1.17;;;21.10;99.90;;;;;;5061711;28;20710;-59
2023/07/01 11:12:01;;;;;;;2.60;1.45;;;21.20;99.90;;;;;;5065642;28;20063;-60
2023/07/01 11:14:34;;;;;;;3.42;1.88;;;21.10;99.90;;;;;;5044206;28;20056;-59
2023/07/01 11:17:11;;;;;;;2.72;1.48;;;21.20;99.90;;;;;;5066129;28;20051;-59
2023/07/01 11:19:39;;;;;;;2.47;1.42;;;21.10;99.90;;;;;;5064078;28;20036;-61
2023/07/01 11:22:06;;;;;;;1.65;1.30;;;21.20;99.90;;;;;;5064069;28;20048;-60
2023/07/01 11:24:34;;;;;;;3.65;1.50;;;21.30;99.90;;;;;;5044200;28;20053;-60
2023/07/01 11:27:03;;;;;;;2.25;1.33;;;21.20;99.90;;;;;;5065283;28;20052;-60
2023/07/01 11:29:30;;;;;;;4.70;1.70;;;21.10;99.90;;;;;;5066801;28;20048;-56
2023/07/01 11:31:58;;;;;;;2.92;1.35;;;20.90;99.90;;;;;;5066430;28;20590;-58
2023/07/01 11:34:26;;;;;;;5.18;1.63;;;20.90;99.90;;;;;;5066239;28;20051;-60
2023/07/01 11:36:53;;;;;;;1.92;1.15;;;20.90;99.90;;;;;;5065902;28;20046;-60
2023/07/01 11:39:20;;;;;;;4.57;1.40;;;20.90;99.90;;;;;;5069045;28;20048;-61
2023/07/01 11:41:51;;;;;;;2.80;1.40;;;21.00;99.90;;;;;;5067719;28;20048;-58
2023/07/01 11:44:29;;;;;;;1.45;1.00;;;21.10;99.90;;;;;;5051118;28;20094;-59
2023/07/01 11:46:56;;;;;;;2.35;0.88;;;21.20;99.90;;;;;;5068346;28;20048;-61
2023/07/01 11:49:23;;;;;;;3.20;0.68;;;21.10;99.90;;;;;;5068906;28;20046;-61
2023/07/01 11:51:54;;;;;;;1.83;0.80;;;21.10;99.90;;;;;;5050465;28;20217;-59
2023/07/01 11:54:23;;;;;;;3.20;1.05;;;21.30;99.90;;;;;;5051460;28;20040;-58
2023/07/01 11:56:52;;;;;;;2.35;1.00;;;21.40;99.90;;;;;;5068088;28;20608;-58
2023/07/01 11:59:29;;;;;;;2.58;0.90;;;21.40;99.90;;;;;;5066648;28;20070;-61
2023/07/01 12:01:57;;;;;;;2.42;1.02;;;21.10;99.90;;;;;;5065209;28;20055;-60
2023/07/01 12:04:24;;;;;;;2.05;0.85;;;21.30;99.90;;;;;;5047172;28;20040;-60
2023/07/01 12:07:15;;;;;;;2.22;1.08;;;21.40;99.90;;;;;;5064939;28;20103;-60
2023/07/01 12:09:44;;;;;;;3.83;1.40;;;21.60;99.90;;;;;;5064666;28;20050;-60
2023/07/01 12:12:31;;;;;;;3.08;1.13;;;21.60;99.90;;;;;;5065904;28;20048;-63
2023/07/01 12:15:02;;;;;;;3.60;1.15;;;21.40;99.90;;;;;;5053209;28;20045;-59
2023/07/01 12:17:30;;;;;;;2.60;1.42;;;21.30;99.90;;;;;;5068674;28;20048;-60
2023/07/01 12:19:58;;;;;;;2.10;1.20;;;21.10;99.90;;;;;;5068663;28;20048;-60
2023/07/01 12:22:26;;;;;;;4.43;1.23;;;21.00;99.90;;;;;;5068524;28;20059;-59
2023/07/01 12:24:54;;;;;;;2.00;1.23;;;21.10;99.90;;;;;;5067887;28;20156;-60
2023/07/01 12:27:21;;;;;;;3.20;1.17;;;21.10;99.90;;;;;;5057353;28;20071;-60
2023/07/01 12:29:48;;;;;;;4.30;1.60;;;21.20;99.90;;;;;;5068335;28;20102;-60
2023/07/01 12:32:14;;;;;;;4.53;1.45;;;21.50;99.90;;;;;;5068489;28;20055;-59
2023/07/01 12:34:41;;;;;;;3.35;1.55;;;21.80;99.90;;;;;;5068320;28;20047;-61
2023/07/01 12:37:08;;;;;;;3.03;1.30;;;22.10;99.90;;;;;;5067940;28;20048;-60
2023/07/01 12:39:35;;;;;;;2.45;1.30;;;22.30;99.90;;;;;;5068058;28;20063;-59
2023/07/01 12:42:03;;;;;;;2.22;1.70;;;22.30;99.90;;;;;;5067922;28;20053;-60
2023/07/01 12:44:30;;;;;;;1.77;1.17;;;22.30;99.90;;;;;;5068481;28;20511;-60
2023/07/01 12:46:57;;;;;;;4.15;1.92;;;22.40;99.90;;;;;;5068100;28;20052;-60
2023/07/01 12:49:24;;;;;;;3.60;1.33;;;22.40;99.90;;;;;;5068285;28;20041;-59
2023/07/01 12:51:51;;;;;;;1.80;1.10;;;22.40;99.90;;;;;;5067728;28;20389;-60